Time;durP1;ratioP1;P1;durP2;ratioP2;P2;SDS_P1;SDS_P2;PMS_P1;PMS_P2;Temp;Humidity;BMP_temperature;BMP_pressure;BME280_temperature;BME280_humidity;BME280_pressure;Samples;Min_cycle;Max_cycle;Signal;HPM_P1;HPM_P2
2022/01/13 00:01:24;;;;;;;3.20;2.27;;;;;;;-3.31;61.46;100711.34;6220736;23;20387;-89
2022/01/13 00:03:49;;;;;;;5.80;2.67;;;;;;;-3.26;60.75;100704.66;6247514;23;20375;-89
2022/01/13 00:06:15;;;;;;;4.53;2.97;;;;;;;-3.22;61.01;100706.47;6220647;23;20898;-88
2022/01/13 00:08:40;;;;;;;2.40;1.60;;;;;;;-3.19;61.05;100705.69;6247022;23;20183;-88
2022/01/13 00:11:06;;;;;;;5.20;3.17;;;;;;;-3.10;60.92;100708.50;6220630;23;20160;-88
2022/01/13 00:13:45;;;;;;;0.83;0.83;;;;;;;-3.07;61.03;100706.03;6247149;23;20256;-88
2022/01/13 00:19:03;;;;;;;3.50;2.63;;;;;;;-3.06;61.22;100699.19;6247018;23;20388;-88
2022/01/13 00:21:34;;;;;;;7.30;3.17;;;;;;;-2.93;61.09;100696.13;6246693;23;20363;-88
2022/01/13 00:24:01;;;;;;;5.03;1.83;;;;;;;-2.84;61.22;100699.81;6247069;23;20356;-88
2022/01/13 00:26:28;;;;;;;3.27;2.20;;;;;;;-3.01;60.49;100701.03;6220519;23;20715;-89
2022/01/13 00:28:56;;;;;;;3.07;2.70;;;;;;;-2.99;61.00;100712.25;6246852;23;20424;-89
2022/01/13 00:31:27;;;;;;;8.43;2.80;;;;;;;-2.88;61.05;100712.53;6246926;23;20828;-88
2022/01/13 00:33:57;;;;;;;3.23;2.63;;;;;;;-2.80;61.14;100711.00;6246981;23;20360;-89
2022/01/13 00:36:28;;;;;;;4.43;1.53;;;;;;;-2.64;60.08;100708.00;6247535;23;20375;-89
2022/01/13 00:38:54;;;;;;;6.60;2.57;;;;;;;-2.53;58.92;100712.59;6246886;23;20359;-88
2022/01/13 00:41:20;;;;;;;2.93;2.00;;;;;;;-2.61;59.74;100713.22;6246850;23;20373;-89
2022/01/13 00:43:48;;;;;;;3.83;2.70;;;;;;;-2.63;59.97;100714.88;6246834;23;20374;-89
2022/01/13 00:46:26;;;;;;;2.57;1.90;;;;;;;-2.58;59.07;100721.88;6220384;23;20161;-89
2022/01/13 00:48:54;;;;;;;9.97;2.23;;;;;;;-2.61;59.04;100732.06;6246652;23;20444;-89
2022/01/13 00:51:21;;;;;;;3.53;2.70;;;;;;;-2.71;59.40;100727.53;6246812;23;20912;-89
2022/01/13 00:53:48;;;;;;;7.53;3.83;;;;;;;-2.80;59.37;100716.13;6220262;23;20782;-89
2022/01/13 00:56:14;;;;;;;5.37;3.43;;;;;;;-2.90;59.41;100729.53;6246713;23;20380;-88
2022/01/13 00:58:39;;;;;;;7.67;3.60;;;;;;;-2.93;59.45;100719.19;6246697;23;20828;-89
2022/01/13 01:01:07;;;;;;;4.23;2.70;;;;;;;-2.97;59.13;100722.53;6246706;23;20150;-89
2022/01/13 01:03:33;;;;;;;16.60;2.87;;;;;;;-3.02;59.51;100724.09;6246607;23;20164;-89
2022/01/13 01:06:00;;;;;;;12.03;5.33;;;;;;;-3.01;59.61;100730.97;6220153;23;20384;-89
2022/01/13 01:08:26;;;;;;;1.97;1.83;;;;;;;-2.88;58.83;100730.47;6247243;23;20372;-89
2022/01/13 01:10:54;;;;;;;2.53;2.20;;;;;;;-2.86;58.76;100726.25;6247221;23;20438;-89
2022/01/13 01:13:26;;;;;;;2.73;1.63;;;;;;;-2.95;58.60;100733.69;6220087;23;20153;-88
2022/01/13 01:15:54;;;;;;;3.30;3.00;;;;;;;-3.14;58.60;100715.25;6221169;23;20672;-89
2022/01/13 01:24:09;;;;;;;6.37;5.40;;;;;;;-3.09;59.23;100717.09;6246492;23;20498;-89
2022/01/13 01:29:18;;;;;;;2.00;1.47;;;;;;;-3.30;59.32;100722.50;6247042;23;20416;-89
2022/01/13 01:31:48;;;;;;;1.03;0.93;;;;;;;-3.45;59.78;100724.59;6247078;23;20793;-89
2022/01/13 01:35:02;;;;;;;3.63;2.80;;;;;;;-3.52;60.40;100727.81;6219993;23;20393;-89
2022/01/13 01:37:00;;;;;;;3.57;1.37;;;;;;;-3.45;60.98;100730.59;6220128;23;20982;-89
2022/01/13 01:39:26;;;;;;;2.47;1.83;;;;;;;-3.44;60.69;100726.34;6219896;23;20399;-89
2022/01/13 01:41:54;;;;;;;1.63;1.27;;;;;;;-3.49;61.29;100731.34;6219817;23;20183;-89
2022/01/13 01:44:27;;;;;;;8.93;1.80;;;;;;;-3.44;60.97;100729.78;6219828;23;20251;-89
2022/01/13 01:46:53;;;;;;;1.43;1.33;;;;;;;-3.33;61.04;100727.53;6246335;23;20403;-89
2022/01/13 01:49:22;;;;;;;13.93;2.73;;;;;;;-3.37;60.93;100720.56;6245965;22;20918;-89
2022/01/13 01:51:50;;;;;;;2.77;1.70;;;;;;;-3.54;61.02;100721.78;6246124;23;20220;-89
2022/01/13 01:54:16;;;;;;;3.33;2.40;;;;;;;-3.55;61.76;100720.91;6246080;23;20383;-89
2022/01/13 01:56:43;;;;;;;3.37;2.23;;;;;;;-3.45;61.70;100724.59;6246433;23;20376;-89
2022/01/13 01:59:13;;;;;;;4.00;1.97;;;;;;;-3.37;61.59;100726.56;6246808;23;20280;-89
2022/01/13 02:01:39;;;;;;;2.00;1.23;;;;;;;-3.30;61.08;100732.75;6246043;23;20775;-89
2022/01/13 02:04:05;;;;;;;2.00;1.80;;;;;;;-3.39;61.32;100728.22;6246078;23;20441;-89
2022/01/13 02:06:30;;;;;;;5.47;2.93;;;;;;;-3.31;60.68;100726.75;6246366;23;20459;-89
2022/01/13 02:08:56;;;;;;;6.30;1.50;;;;;;;-3.35;60.11;100719.78;6245967;23;20184;-89
2022/01/13 02:11:23;;;;;;;2.17;1.57;;;;;;;-3.33;60.14;100718.13;6246036;23;20159;-89
2022/01/13 02:13:52;;;;;;;2.50;2.13;;;;;;;-3.25;59.90;100720.91;6246635;23;20246;-89
2022/01/13 02:18:59;;;;;;;4.63;1.47;;;;;;;-3.39;59.74;100724.78;6246698;23;20379;-89
2022/01/13 02:21:26;;;;;;;1.57;1.47;;;;;;;-3.35;59.64;100724.91;6245882;23;20379;-89
2022/01/13 02:23:53;;;;;;;3.60;1.93;;;;;;;-3.30;59.21;100720.78;6246130;23;20152;-89
2022/01/13 02:26:19;;;;;;;2.43;1.20;;;;;;;-3.34;58.90;100725.78;6246571;23;20368;-89
2022/01/13 02:28:44;;;;;;;5.30;2.40;;;;;;;-3.49;59.09;100723.66;6245756;23;20526;-90
2022/01/13 02:31:12;;;;;;;3.13;1.73;;;;;;;-3.45;59.18;100720.34;6245828;23;20149;-89
2022/01/13 02:33:39;;;;;;;1.23;1.13;;;;;;;-3.60;58.58;100724.16;6246193;23;20158;-89
2022/01/13 02:36:07;;;;;;;2.13;1.97;;;;;;;-3.68;59.14;100721.38;6246213;23;20434;-89
2022/01/13 02:38:33;;;;;;;3.50;1.57;;;;;;;-3.71;59.49;100723.84;6246498;23;20372;-89
2022/01/13 02:41:00;;;;;;;2.93;1.53;;;;;;;-3.70;59.58;100719.59;6245783;23;20703;-89
2022/01/13 02:43:26;;;;;;;3.47;2.40;;;;;;;-3.70;59.79;100722.16;6219992;23;20155;-89
2022/01/13 02:46:18;;;;;;;2.30;1.90;;;;;;;-3.84;59.87;100724.31;6247942;23;20404;-89
2022/01/13 02:48:46;;;;;;;2.30;2.10;;;;;;;-3.81;59.85;100727.84;6247903;23;20455;-89
2022/01/13 02:51:11;;;;;;;2.33;2.07;;;;;;;-3.75;59.60;100722.88;6247810;23;20460;-89
2022/01/13 02:53:37;;;;;;;3.40;1.67;;;;;;;-3.68;59.39;100718.81;6221304;23;20728;-89
2022/01/13 02:56:06;;;;;;;23.43;4.77;;;;;;;-3.69;58.89;100722.19;6247821;23;20161;-89
2022/01/13 02:58:34;;;;;;;1.70;1.20;;;;;;;-3.82;58.76;100714.97;6221360;23;20236;-89
2022/01/13 03:01:02;;;;;;;10.10;3.67;;;;;;;-3.97;58.60;100719.63;6247751;23;20440;-89
2022/01/13 03:03:30;;;;;;;3.57;2.63;;;;;;;-3.99;58.70;100721.28;6221163;23;20422;-89
2022/01/13 03:05:55;;;;;;;3.03;1.53;;;;;;;-4.05;59.29;100721.09;6221339;23;20464;-89
2022/01/13 03:08:21;;;;;;;2.17;1.50;;;;;;;-4.06;59.37;100716.81;6221296;23;20388;-89
2022/01/13 03:10:46;;;;;;;3.07;2.57;;;;;;;-4.07;59.43;100727.84;6247663;23;20174;-90
2022/01/13 03:13:12;;;;;;;1.10;1.00;;;;;;;-4.03;59.15;100722.00;6247668;23;20152;-89
2022/01/13 03:15:37;;;;;;;7.00;2.37;;;;;;;-4.11;59.16;100716.63;6247613;23;20568;-90
2022/01/13 03:18:03;;;;;;;1.17;0.77;;;;;;;-4.27;59.66;100727.22;6247667;23;20590;-89
2022/01/13 03:20:29;;;;;;;2.37;1.63;;;;;;;-4.23;59.31;100716.28;6247900;23;20149;-89
2022/01/13 03:22:54;;;;;;;5.50;1.73;;;;;;;-4.31;60.02;100719.41;6221127;23;20177;-89
2022/01/13 03:25:22;;;;;;;3.30;1.60;;;;;;;-4.30;60.13;100716.03;6247894;23;20242;-89
2022/01/13 03:27:56;;;;;;;2.67;1.37;;;;;;;-4.08;59.55;100728.66;6221038;23;20167;-89
2022/01/13 03:30:21;;;;;;;1.70;1.60;;;;;;;-4.12;59.67;100722.59;6220924;23;20720;-89
2022/01/13 03:32:47;;;;;;;0.87;0.70;;;;;;;-4.20;59.59;100720.63;6247728;23;20388;-89
2022/01/13 03:35:13;;;;;;;5.80;2.07;;;;;;;-4.12;59.65;100724.28;6247466;23;20149;-90
2022/01/13 03:37:38;;;;;;;3.70;3.13;;;;;;;-4.10;59.83;100722.63;6221009;23;20452;-89
2022/01/13 03:40:05;;;;;;;2.83;1.43;;;;;;;-4.04;59.78;100722.84;6247398;23;20145;-89
2022/01/13 03:42:30;;;;;;;1.80;1.70;;;;;;;-4.07;59.43;100712.50;6247280;23;20203;-89
2022/01/13 03:44:56;;;;;;;0.80;0.80;;;;;;;-3.94;59.41;100715.47;6247336;23;20384;-89
2022/01/13 03:47:21;;;;;;;3.23;1.60;;;;;;;-3.96;58.90;100721.38;6220856;23;20157;-89
2022/01/13 03:49:47;;;;;;;2.33;1.60;;;;;;;-4.16;58.57;100718.19;6220631;23;20360;-89
2022/01/13 03:52:12;;;;;;;2.00;1.53;;;;;;;-4.36;58.92;100724.38;6247280;23;20157;-89
2022/01/13 03:54:38;;;;;;;3.33;1.97;;;;;;;-4.32;59.23;100726.19;6220082;23;20167;-89
2022/01/13 03:57:43;;;;;;;4.33;3.47;;;;;;;-4.36;59.13;100735.50;6247257;23;20218;-89
2022/01/13 04:00:58;;;;;;;1.67;1.57;;;;;;;-4.30;59.41;100736.50;6171494;23;20288;-90
2022/01/13 04:03:24;;;;;;;4.37;0.90;;;;;;;-4.47;59.54;100736.81;6247591;23;20368;-90
2022/01/13 04:06:33;;;;;;;1.00;1.00;;;;;;;-4.73;60.79;100735.09;6247752;23;20370;-89
2022/01/13 04:08:58;;;;;;;2.57;2.37;;;;;;;-4.64;60.37;100727.72;6220539;23;20193;-89
2022/01/13 04:11:28;;;;;;;1.53;1.43;;;;;;;-4.49;60.63;100728.25;6220676;23;20376;-89
2022/01/13 04:14:00;;;;;;;2.87;1.80;;;;;;;-4.36;59.71;100725.25;6247454;23;20162;-90
2022/01/13 04:16:31;;;;;;;0.73;0.70;;;;;;;-4.41;59.86;100731.91;6220559;23;20384;-89
2022/01/13 04:19:02;;;;;;;3.47;2.17;;;;;;;-4.39;59.58;100732.81;6247367;23;20355;-89
2022/01/13 04:21:28;;;;;;;0.80;0.80;;;;;;;-4.33;59.52;100738.97;6220569;23;20377;-89
2022/01/13 04:23:56;;;;;;;1.13;1.00;;;;;;;-4.28;59.45;100738.28;6220481;23;20462;-90
2022/01/13 04:26:27;;;;;;;2.07;1.83;;;;;;;-4.41;59.08;100746.41;6246948;23;20153;-89
2022/01/13 04:29:01;;;;;;;3.67;1.77;;;;;;;-4.51;58.83;100752.03;6220376;23;20507;-90
2022/01/13 04:31:27;;;;;;;2.60;2.00;;;;;;;-4.51;58.98;100749.47;6246878;23;20878;-90
2022/01/13 04:33:52;;;;;;;0.73;0.73;;;;;;;-4.48;59.45;100750.44;6220375;23;20476;-89
2022/01/13 04:36:18;;;;;;;3.90;1.40;;;;;;;-4.36;59.38;100744.84;6220310;23;20181;-90
2022/01/13 04:38:43;;;;;;;2.07;1.87;;;;;;;-4.29;58.76;100751.91;6220339;23;20157;-90
2022/01/13 04:41:09;;;;;;;6.70;2.37;;;;;;;-4.23;58.63;100746.13;6246764;23;20152;-89
2022/01/13 04:43:34;;;;;;;2.87;1.63;;;;;;;-4.17;58.44;100749.75;6247132;23;20153;-89
2022/01/13 04:46:00;;;;;;;0.80;0.77;;;;;;;-4.21;58.35;100744.47;6246713;23;20215;-90
2022/01/13 04:48:26;;;;;;;6.73;1.97;;;;;;;-4.28;58.59;100752.78;6246735;23;20566;-89
2022/01/13 04:50:51;;;;;;;2.00;1.47;;;;;;;-4.35;58.95;100757.69;6220012;23;20177;-90
2022/01/13 04:53:17;;;;;;;1.40;1.30;;;;;;;-4.38;59.24;100752.47;6246678;23;20605;-89
2022/01/13 04:55:51;;;;;;;2.70;1.83;;;;;;;-4.38;58.93;100757.59;6246551;23;20149;-89
2022/01/13 04:58:17;;;;;;;4.43;2.57;;;;;;;-4.50;59.78;100758.88;6220187;23;20151;-90
2022/01/13 05:00:43;;;;;;;23.70;8.17;;;;;;;-4.49;59.90;100763.19;6220095;23;20869;-90
2022/01/13 05:03:08;;;;;;;26.37;8.43;;;;;;;-4.51;60.28;100764.81;6246507;23;20379;-89
2022/01/13 05:05:34;;;;;;;16.30;6.87;;;;;;;-4.49;60.36;100761.50;6246754;23;20222;-89
2022/01/13 05:07:59;;;;;;;16.83;8.90;;;;;;;-4.40;60.03;100764.34;6246535;23;20580;-89
2022/01/13 05:10:25;;;;;;;11.63;7.57;;;;;;;-4.41;59.80;100770.31;6246420;23;20573;-89
2022/01/13 05:12:55;;;;;;;24.67;5.37;;;;;;;-4.24;59.34;100770.84;6246784;23;20160;-89
2022/01/13 05:15:26;;;;;;;10.57;5.40;;;;;;;-4.23;59.09;100764.91;6246424;23;20151;-90
2022/01/13 05:20:22;;;;;;;3.80;2.70;;;;;;;-4.33;59.54;100768.00;6246244;23;20365;-90
2022/01/13 05:22:48;;;;;;;6.50;3.60;;;;;;;-4.43;59.46;100771.91;6246392;23;20649;-89
2022/01/13 05:25:19;;;;;;;5.67;2.43;;;;;;;-4.45;59.58;100776.13;6246614;23;20438;-89
2022/01/13 05:27:45;;;;;;;2.57;2.23;;;;;;;-4.51;60.02;100781.03;6247373;23;20376;-89
2022/01/13 05:30:11;;;;;;;7.37;1.90;;;;;;;-4.57;59.83;100785.97;6219664;23;20758;-90
2022/01/13 05:32:38;;;;;;;11.10;5.10;;;;;;;-4.55;60.61;100801.34;6246103;23;20408;-90
2022/01/13 05:35:04;;;;;;;6.93;3.67;;;;;;;-4.56;60.27;100797.91;6246237;23;20385;-90
2022/01/13 05:37:30;;;;;;;8.40;4.37;;;;;;;-4.56;60.44;100799.63;6219759;23;20217;-90
2022/01/13 05:39:56;;;;;;;7.70;5.10;;;;;;;-4.49;60.23;100793.88;6219747;23;20890;-90
2022/01/13 05:42:22;;;;;;;6.73;3.87;;;;;;;-4.51;59.54;100798.94;6219657;23;20628;-90
2022/01/13 05:44:47;;;;;;;4.47;2.53;;;;;;;-4.47;59.69;100793.13;6246318;23;20400;-90
2022/01/13 05:47:13;;;;;;;6.47;2.83;;;;;;;-4.50;59.75;100804.94;6246092;23;20594;-90
2022/01/13 05:49:41;;;;;;;3.73;2.90;;;;;;;-4.51;59.93;100796.38;6246006;23;20241;-89
2022/01/13 05:52:11;;;;;;;3.90;3.10;;;;;;;-4.50;60.01;100802.38;6246405;23;20412;-90
2022/01/13 05:54:36;;;;;;;9.60;4.50;;;;;;;-4.49;60.12;100799.88;6246062;23;20799;-90
2022/01/13 05:57:03;;;;;;;2.53;1.77;;;;;;;-4.44;60.26;100808.59;6220008;23;20914;-90
2022/01/13 05:59:28;;;;;;;3.33;2.60;;;;;;;-4.52;60.18;100807.44;6246383;23;20145;-90
2022/01/13 06:01:54;;;;;;;9.17;3.23;;;;;;;-4.54;60.17;100810.78;6219469;23;20859;-90
2022/01/13 06:04:19;;;;;;;4.27;2.60;;;;;;;-4.47;60.20;100805.91;6246001;23;20207;-90
2022/01/13 06:06:45;;;;;;;16.10;5.80;;;;;;;-4.39;59.97;100821.53;6246336;23;20159;-90
2022/01/13 06:09:11;;;;;;;4.93;3.87;;;;;;;-4.37;60.33;100820.75;6245853;23;20189;-90
2022/01/13 06:12:21;;;;;;;8.80;5.27;;;;;;;-4.24;60.11;100816.91;6246264;23;20372;-90
2022/01/13 06:14:25;;;;;;;4.57;3.40;;;;;;;-4.22;60.29;100824.66;6225889;23;20149;-90
2022/01/13 06:16:50;;;;;;;5.53;2.77;;;;;;;-4.23;60.26;100828.03;6246224;23;20383;-90
2022/01/13 06:19:16;;;;;;;11.47;4.43;;;;;;;-4.24;60.42;100823.72;6219151;23;20222;-90
2022/01/13 06:21:41;;;;;;;6.50;2.60;;;;;;;-4.31;60.65;100834.56;6246226;23;20157;-90
2022/01/13 06:24:07;;;;;;;8.37;3.03;;;;;;;-4.30;61.10;100826.97;6245875;23;20176;-91
2022/01/13 06:26:32;;;;;;;7.60;3.80;;;;;;;-4.27;61.32;100839.00;6245815;23;20160;-90
2022/01/13 06:28:58;;;;;;;5.40;3.77;;;;;;;-4.20;61.81;100835.81;6246030;23;20189;-91
2022/01/13 06:31:23;;;;;;;10.60;6.70;;;;;;;-4.05;62.00;100841.44;6245828;23;20153;-90
2022/01/13 06:33:48;;;;;;;4.47;3.87;;;;;;;-3.90;61.99;100841.91;6219341;23;20153;-90
2022/01/13 06:36:14;;;;;;;11.50;5.93;;;;;;;-3.73;62.32;100843.34;6245792;23;20146;-90
2022/01/13 06:38:39;;;;;;;9.90;5.23;;;;;;;-3.62;62.69;100844.56;6245751;23;20150;-90
2022/01/13 06:41:05;;;;;;;5.27;4.53;;;;;;;-3.48;62.60;100840.72;6245785;23;20147;-90
2022/01/13 06:43:33;;;;;;;12.60;4.60;;;;;;;-3.30;62.33;100841.25;6245768;23;20153;-90
2022/01/13 06:45:59;;;;;;;10.33;4.83;;;;;;;-3.18;63.00;100845.91;6219296;23;20599;-90
2022/01/13 06:48:24;;;;;;;7.07;4.47;;;;;;;-3.06;62.76;100843.69;6219200;23;20409;-90
2022/01/13 06:50:50;;;;;;;13.07;5.50;;;;;;;-2.93;62.47;100839.78;6219318;23;20191;-90
2022/01/13 06:53:15;;;;;;;18.97;9.10;;;;;;;-2.80;62.40;100845.28;6246142;23;20210;-90
2022/01/13 06:55:40;;;;;;;11.10;7.10;;;;;;;-2.60;62.48;100854.44;6219333;23;20496;-90
2022/01/13 06:58:06;;;;;;;25.13;12.57;;;;;;;-2.50;62.50;100850.41;6245808;23;20159;-90
2022/01/13 07:00:33;;;;;;;22.40;7.27;;;;;;;-2.34;62.23;100851.69;6219300;23;20164;-90
2022/01/13 07:03:01;;;;;;;18.83;12.57;;;;;;;-2.34;62.25;100857.69;6219404;23;20231;-90
2022/01/13 07:05:27;;;;;;;31.83;13.13;;;;;;;-2.31;61.62;100862.03;6245693;23;20378;-90
2022/01/13 07:07:52;;;;;;;31.10;15.07;;;;;;;-2.24;61.67;100857.09;6245748;23;20400;-90
2022/01/13 07:10:18;;;;;;;37.47;17.00;;;;;;;-2.14;61.68;100859.06;6245579;23;20173;-90
2022/01/13 07:12:43;;;;;;;34.43;16.23;;;;;;;-1.99;61.24;100861.16;6246661;23;20159;-90
2022/01/13 07:15:10;;;;;;;39.17;16.77;;;;;;;-1.82;61.14;100865.03;6246306;23;20149;-90
2022/01/13 07:17:36;;;;;;;48.73;18.13;;;;;;;-1.64;60.78;100856.88;6246001;23;20581;-90
2022/01/13 07:20:02;;;;;;;51.40;20.70;;;;;;;-1.46;60.74;100857.31;6245674;23;20463;-90
2022/01/13 07:22:28;;;;;;;30.30;17.03;;;;;;;-1.34;59.75;100861.00;6245553;23;20219;-90
2022/01/13 07:24:53;;;;;;;37.60;16.63;;;;;;;-1.20;59.88;100863.91;6219097;23;20376;-91
2022/01/13 07:27:19;;;;;;;39.37;17.60;;;;;;;-1.07;59.56;100870.19;6219540;23;20552;-90
2022/01/13 07:29:45;;;;;;;24.57;14.80;;;;;;;-1.04;59.27;100871.13;6246396;23;20173;-90
2022/01/13 07:32:12;;;;;;;48.90;21.27;;;;;;;-1.05;59.82;100869.41;6220928;23;20164;-90
2022/01/13 07:34:38;;;;;;;36.50;17.60;;;;;;;-1.07;60.18;100883.91;6220855;23;20528;-90
2022/01/13 07:37:05;;;;;;;38.47;16.00;;;;;;;-1.07;59.76;100886.50;6247394;23;20376;-89
2022/01/13 07:39:31;;;;;;;42.23;20.67;;;;;;;-0.99;60.12;100884.09;6220864;23;20467;-90
2022/01/13 07:41:56;;;;;;;32.40;18.77;;;;;;;-0.93;59.79;100879.94;6220837;23;20454;-90
2022/01/13 07:44:22;;;;;;;29.50;16.83;;;;;;;-0.78;60.26;100885.41;6247306;23;20831;-90
2022/01/13 07:46:47;;;;;;;49.90;17.77;;;;;;;-0.72;59.91;100877.81;6246120;23;20153;-90
2022/01/13 07:49:13;;;;;;;36.87;16.90;;;;;;;-0.62;60.17;100887.47;6247119;23;20193;-90
2022/01/13 07:51:39;;;;;;;46.07;20.80;;;;;;;-0.64;60.29;100889.16;6247627;23;20229;-90
2022/01/13 07:54:05;;;;;;;36.13;18.50;;;;;;;-0.54;60.40;100885.03;6247277;23;20404;-90
2022/01/13 07:56:30;;;;;;;47.53;21.17;;;;;;;-0.35;60.69;100884.56;6247223;23;20544;-90
2022/01/13 07:58:56;;;;;;;50.17;20.33;;;;;;;-0.17;61.42;100886.63;6220792;23;20163;-90
2022/01/13 08:01:22;;;;;;;44.43;21.87;;;;;;;-0.03;62.13;100875.69;6247183;23;20176;-90
2022/01/13 08:03:48;;;;;;;30.63;16.00;;;;;;;0.12;63.07;100877.69;6220620;23;20395;-89
2022/01/13 08:06:14;;;;;;;35.83;16.33;;;;;;;0.28;62.82;100871.94;6247482;23;20151;-91
2022/01/13 08:08:40;;;;;;;47.87;21.30;;;;;;;0.46;62.63;100866.22;6247056;23;20584;-90
2022/01/13 08:11:07;;;;;;;48.67;20.63;;;;;;;0.54;62.67;100869.78;6220521;23;20420;-90
2022/01/13 08:13:34;;;;;;;53.90;24.10;;;;;;;0.47;60.75;100870.53;6247781;23;20173;-90
2022/01/13 08:16:02;;;;;;;52.47;21.43;;;;;;;0.54;60.30;100869.78;6220618;23;20449;-90
2022/01/13 08:21:12;;;;;;;67.93;26.17;;;;;;;0.89;60.08;100878.03;6247354;23;20672;-89
2022/01/13 08:23:38;;;;;;;51.80;25.40;;;;;;;1.04;59.31;100870.50;6246946;23;20377;-89
2022/01/13 08:26:03;;;;;;;50.77;23.53;;;;;;;1.32;59.70;100872.59;6247623;23;20148;-89
2022/01/13 08:28:30;;;;;;;47.80;20.27;;;;;;;1.29;58.41;100874.25;6220398;23;20543;-89
2022/01/13 08:30:59;;;;;;;49.30;24.53;;;;;;;1.46;58.65;100873.63;6220285;23;20183;-89
2022/01/13 08:33:25;;;;;;;46.23;23.30;;;;;;;1.57;58.09;100879.75;6246812;23;20388;-89
2022/01/13 08:35:53;;;;;;;43.53;21.30;;;;;;;1.56;59.08;100869.41;6221009;23;20405;-89
2022/01/13 08:38:19;;;;;;;42.03;20.87;;;;;;;1.65;58.44;100872.97;6246750;23;20634;-88
2022/01/13 08:40:47;;;;;;;44.33;18.97;;;;;;;1.96;59.52;100871.59;6219977;23;20236;-89
2022/01/13 08:43:14;;;;;;;37.20;16.57;;;;;;;2.14;58.12;100870.88;6246794;23;20368;-88
2022/01/13 08:45:40;;;;;;;21.77;12.27;;;;;;;2.23;57.04;100858.00;6246814;23;20270;-88
2022/01/13 08:48:06;;;;;;;12.47;5.73;;;;;;;2.26;56.21;100848.56;6246588;22;20414;-88
2022/01/13 08:50:31;;;;;;;4.97;2.57;;;;;;;2.52;55.76;100860.84;6247004;23;20407;-88
2022/01/13 08:52:56;;;;;;;3.80;1.97;;;;;;;2.20;52.46;100858.00;6220633;23;20157;-88
2022/01/13 08:55:22;;;;;;;5.90;3.53;;;;;;;2.35;53.83;100868.47;6246648;23;20148;-88
2022/01/13 08:57:47;;;;;;;5.13;2.70;;;;;;;2.09;55.85;100868.25;6220127;23;20244;-88
2022/01/13 09:00:14;;;;;;;5.27;1.80;;;;;;;2.25;55.08;100871.84;6220115;23;20153;-88
2022/01/13 09:02:42;;;;;;;2.90;2.10;;;;;;;2.20;54.11;100873.53;6220040;23;20247;-88
2022/01/13 09:05:08;;;;;;;7.77;2.33;;;;;;;2.17;55.01;100866.63;6246501;23;20227;-88
2022/01/13 09:07:33;;;;;;;6.47;2.60;;;;;;;2.38;55.16;100871.09;6246787;23;20402;-89
2022/01/13 09:09:59;;;;;;;3.73;1.30;;;;;;;2.52;56.31;100866.88;6247016;23;20271;-89
2022/01/13 09:12:25;;;;;;;5.37;1.73;;;;;;;2.96;55.00;100860.25;6246747;23;20145;-87
2022/01/13 09:14:51;;;;;;;4.47;2.63;;;;;;;3.05;54.02;100851.69;6247110;23;20214;-87
2022/01/13 09:17:23;;;;;;;8.17;1.63;;;;;;;3.00;54.22;100851.66;6220046;23;20149;-89
2022/01/13 09:19:50;;;;;;;1.50;0.93;;;;;;;2.98;54.43;100848.22;6219925;23;20137;-90
2022/01/13 09:22:15;;;;;;;7.80;2.33;;;;;;;3.18;54.31;100848.28;6219923;23;20153;-90
2022/01/13 09:24:41;;;;;;;3.07;1.73;;;;;;;3.04;52.99;100856.00;6246709;23;20149;-90
2022/01/13 09:27:07;;;;;;;2.40;2.00;;;;;;;3.21;52.84;100847.44;6246311;23;20153;-91
2022/01/13 09:29:33;;;;;;;3.03;1.63;;;;;;;3.31;53.41;100846.59;6219833;23;20519;-90
2022/01/13 09:31:58;;;;;;;5.13;3.17;;;;;;;3.59;53.85;100836.34;6246582;23;20188;-91
2022/01/13 09:34:24;;;;;;;4.27;2.00;;;;;;;3.79;51.14;100831.22;6220259;23;20157;-90
2022/01/13 09:36:50;;;;;;;4.20;2.53;;;;;;;3.54;49.58;100826.81;6219961;23;20225;-90
2022/01/13 09:39:15;;;;;;;2.97;1.07;;;;;;;3.46;49.91;100828.53;6220161;23;20152;-90
2022/01/13 09:41:43;;;;;;;6.63;2.40;;;;;;;3.24;49.16;100821.53;6220498;23;20153;-90
2022/01/13 09:44:10;;;;;;;3.97;2.07;;;;;;;3.36;50.91;100821.56;6246697;23;20553;-90
2022/01/13 09:46:37;;;;;;;8.87;3.20;;;;;;;3.42;52.25;100826.78;6219933;23;20165;-93
2022/01/13 09:49:05;;;;;;;4.37;2.43;;;;;;;3.36;52.99;100824.16;6220582;23;20235;-93
2022/01/13 09:51:36;;;;;;;3.43;2.03;;;;;;;3.14;51.86;100828.41;6220089;23;20164;-91
2022/01/13 09:54:03;;;;;;;3.83;2.07;;;;;;;3.27;52.51;100822.44;6219443;23;20142;-93
2022/01/13 09:56:28;;;;;;;7.33;2.67;;;;;;;3.37;51.92;100811.22;6220168;23;20195;-94
2022/01/13 09:58:54;;;;;;;5.83;3.33;;;;;;;3.60;52.48;100811.28;6220062;23;20149;-93
2022/01/13 10:01:20;;;;;;;3.53;2.37;;;;;;;3.55;52.46;100815.59;6219828;23;20577;-90
2022/01/13 10:03:46;;;;;;;8.90;2.47;;;;;;;3.37;51.88;100823.31;6246505;23;20153;-90
2022/01/13 10:06:16;;;;;;;3.23;1.87;;;;;;;3.03;52.85;100822.31;6246022;23;20159;-90
2022/01/13 10:08:59;;;;;;;4.57;2.67;;;;;;;3.09;53.11;100817.19;6246914;23;20169;-90
2022/01/13 10:11:41;;;;;;;5.00;2.23;;;;;;;3.32;55.16;100815.53;6246697;23;20146;-93
2022/01/13 10:16:55;;;;;;;5.93;3.03;;;;;;;3.03;54.87;100797.28;6246914;23;20538;-93
2022/01/13 10:19:42;;;;;;;3.93;2.83;;;;;;;3.32;54.65;100793.94;6220244;23;20422;-94
2022/01/13 10:22:15;;;;;;;5.63;2.63;;;;;;;3.28;53.11;100785.28;6219992;23;20156;-94
2022/01/13 10:24:49;;;;;;;7.57;2.70;;;;;;;3.52;53.67;100776.69;6247026;23;20463;-95
2022/01/13 10:27:30;;;;;;;4.90;3.00;;;;;;;3.77;53.90;100778.47;6220017;23;20145;-93
2022/01/13 10:33:28;;;;;;;4.10;1.83;;;;;;;3.45;52.33;100770.66;6200136;23;20160;-93
2022/01/13 10:36:49;;;;;;;7.73;3.57;;;;;;;3.56;53.24;100773.25;6220063;23;20228;-95
2022/01/13 10:40:39;;;;;;;4.17;2.80;;;;;;;3.72;52.64;100749.09;6248358;23;20243;-96
2022/01/13 10:48:26;;;;;;;4.27;2.03;;;;;;;3.88;50.69;100742.16;6182492;23;20226;-94
2022/01/13 11:15:55;;;;;;;9.10;3.13;;;;;;;4.74;49.57;100672.72;6205756;22;20519;-95
2022/01/13 11:18:43;;;;;;;6.37;3.17;;;;;;;4.49;50.48;100668.50;6155322;23;20218;-91
2022/01/13 11:24:57;;;;;;;6.23;2.07;;;;;;;4.46;48.87;100662.47;6125930;23;20155;-93
2022/01/13 11:30:53;;;;;;;5.23;2.60;;;;;;;4.25;50.36;100651.28;6010560;23;20195;-92
2022/01/13 11:33:31;;;;;;;;;;;;;;;;;;;;;
2022/01/13 11:36:27;;;;;;;4.20;3.00;;;;;;;4.20;47.86;100646.97;6010755;23;20241;-91
2022/01/13 11:56:49;;;;;;;;;;;;;;;;;;;;;
2022/01/13 12:02:42;;;;;;;7.97;3.30;;;;;;;5.16;49.73;100643.06;6104887;23;20179;-90
2022/01/13 12:05:41;;;;;;;7.87;4.37;;;;;;;5.11;50.15;100634.41;6190390;23;20152;-90
2022/01/13 12:07:59;;;;;;;8.97;3.57;;;;;;;5.24;50.55;100630.84;6211062;23;20157;-90
2022/01/13 12:10:24;;;;;;;8.63;3.87;;;;;;;5.27;49.63;100635.16;6216478;23;20240;-89
2022/01/13 12:13:04;;;;;;;8.97;4.57;;;;;;;5.31;50.91;100632.56;6216804;23;20157;-91
2022/01/13 12:16:03;;;;;;;7.93;5.23;;;;;;;5.31;50.15;100635.16;6189671;23;20191;-91
2022/01/13 12:18:44;;;;;;;7.00;4.03;;;;;;;4.81;51.50;100626.81;6207760;23;20196;-89
2022/01/13 12:21:35;;;;;;;6.50;3.30;;;;;;;4.61;52.18;100632.09;6190282;23;20156;-89
2022/01/13 12:24:02;;;;;;;8.70;3.87;;;;;;;4.79;51.10;100631.16;6217141;23;20138;-88
2022/01/13 12:26:33;;;;;;;5.43;2.87;;;;;;;4.88;51.61;100629.38;6216415;23;20145;-88
2022/01/13 12:29:21;;;;;;;7.13;3.07;;;;;;;5.14;53.26;100630.94;6190557;23;20173;-89
2022/01/13 12:31:55;;;;;;;5.10;2.13;;;;;;;4.89;50.20;100627.63;6190208;23;20142;-87
2022/01/13 12:34:28;;;;;;;4.53;2.60;;;;;;;5.02;50.65;100631.88;6217119;23;20649;-89
2022/01/13 12:36:55;;;;;;;2.43;1.47;;;;;;;4.88;49.65;100634.56;6216418;23;20150;-88
2022/01/13 12:39:21;;;;;;;19.10;8.00;;;;;;;4.56;50.04;100622.63;6216817;23;20152;-90
2022/01/13 12:42:31;;;;;;;;;;;;;;;;;;;;;
2022/01/13 12:48:09;;;;;;;10.07;4.03;;;;;;;5.07;49.60;100618.84;6217030;23;20621;-93
2022/01/13 12:54:35;;;;;;;10.67;4.10;;;;;;;5.21;50.89;100620.50;6216562;23;20193;-93
2022/01/13 12:57:03;;;;;;;4.87;2.77;;;;;;;4.83;49.86;100622.47;6187397;23;20229;-90
2022/01/13 12:59:38;;;;;;;7.60;3.80;;;;;;;5.04;50.36;100617.16;6191262;23;20153;-90
2022/01/13 13:02:33;;;;;;;9.87;3.50;;;;;;;5.23;49.67;100612.69;6216954;23;20531;-92
2022/01/13 13:04:59;;;;;;;8.13;3.63;;;;;;;5.01;49.64;100605.91;6189935;23;20170;-89
2022/01/13 13:07:55;;;;;;;13.47;4.37;;;;;;;5.36;49.10;100602.19;6216570;23;20270;-89
2022/01/13 13:10:21;;;;;;;8.50;4.30;;;;;;;5.12;49.08;100594.56;6215918;23;20617;-91